Time;durP1;ratioP1;P1;durP2;ratioP2;P2;SDS_P1;SDS_P2;PMS_P1;PMS_P2;Temp;Humidity;BMP_temperature;BMP_pressure;BME280_temperature;BME280_humidity;BME280_pressure;Samples;Min_cycle;Max_cycle;Signal;HPM_P1;HPM_P2
2022/01/11 00:02:12;;;;;;;62.13;31.60;;;3.10;99.90;;;;;;5074206;28;20020;-69
2022/01/11 00:04:38;;;;;;;64.35;33.40;;;3.10;99.90;;;;;;5074074;28;20383;-69
2022/01/11 00:07:06;;;;;;;64.05;33.40;;;3.10;99.90;;;;;;5073871;28;20202;-69
2022/01/11 00:09:38;;;;;;;56.03;31.52;;;3.10;99.90;;;;;;5074099;28;20028;-69
2022/01/11 00:12:07;;;;;;;58.58;31.30;;;3.00;99.90;;;;;;5077131;28;20032;-69
2022/01/11 00:14:33;;;;;;;80.38;35.83;;;3.00;99.90;;;;;;5077374;28;20334;-69
2022/01/11 00:16:59;;;;;;;64.18;34.25;;;3.00;99.90;;;;;;5078837;28;20036;-69
2022/01/11 00:19:26;;;;;;;69.03;36.60;;;2.90;99.90;;;;;;5078327;28;20104;-69
2022/01/11 00:21:52;;;;;;;76.80;38.40;;;2.90;99.90;;;;;;5077768;28;20063;-70
2022/01/11 00:24:27;;;;;;;71.55;35.03;;;2.90;99.90;;;;;;5077734;28;20029;-69
2022/01/11 00:26:52;;;;;;;66.35;34.92;;;2.90;99.90;;;;;;5077482;28;20503;-69
2022/01/11 00:29:18;;;;;;;70.10;33.78;;;2.90;99.90;;;;;;5078008;28;20067;-69
2022/01/11 00:31:46;;;;;;;71.15;33.97;;;2.90;99.90;;;;;;5077583;28;20048;-69
2022/01/11 00:34:13;;;;;;;61.30;33.28;;;2.90;99.90;;;;;;5077500;28;20021;-69
2022/01/11 00:36:42;;;;;;;62.88;32.30;;;2.80;99.90;;;;;;5092759;28;20028;-69
2022/01/11 00:39:10;;;;;;;60.72;33.80;;;2.80;99.90;;;;;;5077467;28;20378;-69
2022/01/11 00:41:43;;;;;;;60.78;33.67;;;2.80;99.90;;;;;;5092880;28;20401;-69
2022/01/11 00:44:09;;;;;;;66.70;33.33;;;2.80;99.90;;;;;;5075849;28;20028;-69
2022/01/11 00:46:35;;;;;;;67.50;34.35;;;2.80;99.90;;;;;;5077415;28;20020;-69
2022/01/11 00:49:01;;;;;;;63.60;33.90;;;2.70;99.90;;;;;;5077922;28;20028;-69
2022/01/11 00:51:26;;;;;;;70.57;36.25;;;2.80;99.90;;;;;;5077128;28;20031;-69
2022/01/11 00:53:52;;;;;;;64.20;34.17;;;2.80;99.90;;;;;;5092247;28;20073;-68
2022/01/11 00:56:18;;;;;;;65.25;34.20;;;2.80;99.90;;;;;;5076924;28;20062;-69
2022/01/11 00:58:44;;;;;;;74.55;35.22;;;2.80;99.90;;;;;;5077085;28;20040;-69
2022/01/11 01:01:10;;;;;;;67.22;34.78;;;2.70;99.90;;;;;;5076711;28;20028;-69
2022/01/11 01:03:36;;;;;;;67.20;36.15;;;2.70;99.90;;;;;;5076971;28;20526;-69
2022/01/11 01:06:03;;;;;;;67.55;34.78;;;2.70;99.90;;;;;;5075751;28;20024;-69
2022/01/11 01:08:28;;;;;;;64.10;34.50;;;2.70;99.90;;;;;;5077764;28;20141;-69
2022/01/11 01:10:54;;;;;;;65.03;34.80;;;2.60;99.90;;;;;;5078930;28;20547;-69
2022/01/11 01:13:26;;;;;;;68.22;35.40;;;2.60;99.90;;;;;;5077413;28;20035;-69
2022/01/11 01:15:54;;;;;;;70.78;34.65;;;2.60;99.90;;;;;;5077099;28;20120;-69
2022/01/11 01:18:23;;;;;;;65.80;33.70;;;2.60;99.90;;;;;;5077483;28;20025;-69
2022/01/11 01:20:50;;;;;;;59.50;33.65;;;2.50;99.90;;;;;;5078566;28;20078;-69
2022/01/11 01:23:16;;;;;;;66.97;34.25;;;2.50;99.90;;;;;;5076593;28;20016;-69
2022/01/11 01:25:43;;;;;;;64.47;35.17;;;2.50;99.90;;;;;;5076443;28;20032;-69
2022/01/11 01:28:10;;;;;;;61.97;33.10;;;2.50;99.90;;;;;;5092318;28;20063;-69
2022/01/11 01:30:36;;;;;;;60.25;34.03;;;2.40;99.90;;;;;;5076261;28;20032;-69
2022/01/11 01:33:02;;;;;;;61.05;34.05;;;2.40;99.90;;;;;;5075347;28;20032;-69
2022/01/11 01:35:33;;;;;;;59.67;33.83;;;2.40;99.90;;;;;;5076337;28;20500;-69
2022/01/11 01:37:59;;;;;;;59.60;33.05;;;2.40;99.90;;;;;;5076492;28;20385;-69
2022/01/11 01:40:26;;;;;;;58.85;33.60;;;2.40;99.90;;;;;;5076661;28;20048;-69
2022/01/11 01:42:52;;;;;;;63.00;33.35;;;2.40;99.90;;;;;;5077509;28;20032;-69
2022/01/11 01:45:23;;;;;;;65.97;33.55;;;2.40;99.90;;;;;;5076576;28;20016;-69
2022/01/11 01:47:53;;;;;;;62.75;34.65;;;2.30;99.90;;;;;;5075323;28;20474;-69
2022/01/11 01:50:18;;;;;;;68.22;32.75;;;2.30;99.90;;;;;;5074984;28;20032;-68
2022/01/11 01:52:44;;;;;;;79.70;33.90;;;2.40;99.90;;;;;;5076649;28;20095;-69
2022/01/11 01:55:10;;;;;;;63.42;31.38;;;2.40;99.90;;;;;;5076772;28;20021;-69
2022/01/11 01:57:36;;;;;;;90.55;32.55;;;2.40;99.90;;;;;;5075469;28;20028;-69
2022/01/11 02:00:07;;;;;;;91.35;32.28;;;2.20;99.90;;;;;;5090426;28;20334;-69
2022/01/11 02:02:35;;;;;;;76.25;31.23;;;2.20;99.90;;;;;;5076291;28;20048;-68
2022/01/11 02:05:02;;;;;;;79.65;30.10;;;2.00;99.90;;;;;;5091651;28;20120;-69
2022/01/11 02:07:27;;;;;;;94.57;31.52;;;1.90;99.90;;;;;;5076283;28;20072;-69
2022/01/11 02:09:53;;;;;;;68.90;31.75;;;1.80;99.90;;;;;;5075589;28;20085;-69
2022/01/11 02:12:19;;;;;;;63.33;31.95;;;1.70;99.90;;;;;;5074772;28;20064;-69
2022/01/11 02:14:44;;;;;;;64.97;31.25;;;1.60;99.90;;;;;;5091781;28;20500;-68
2022/01/11 02:17:10;;;;;;;80.50;33.08;;;1.50;99.90;;;;;;5075744;28;20020;-69
2022/01/11 02:19:36;;;;;;;66.30;32.13;;;1.50;99.90;;;;;;5077932;28;20032;-68
2022/01/11 02:22:01;;;;;;;67.80;32.70;;;1.50;99.90;;;;;;5078044;28;20032;-68
2022/01/11 02:24:32;;;;;;;67.40;31.75;;;1.50;99.90;;;;;;5079640;28;20098;-69
2022/01/11 02:26:57;;;;;;;72.43;31.53;;;1.40;99.90;;;;;;5081218;28;20048;-69
2022/01/11 02:29:23;;;;;;;73.13;31.40;;;1.40;99.90;;;;;;5080832;28;20278;-69
2022/01/11 02:31:48;;;;;;;76.97;32.15;;;1.40;99.90;;;;;;5080015;28;20024;-69
2022/01/11 02:34:14;;;;;;;73.70;31.13;;;1.30;99.90;;;;;;5077766;28;20029;-69
2022/01/11 02:36:39;;;;;;;67.60;31.05;;;1.30;99.90;;;;;;5077067;28;20035;-69
2022/01/11 02:39:05;;;;;;;101.50;32.47;;;1.30;99.90;;;;;;5076407;28;20081;-69
2022/01/11 02:41:31;;;;;;;67.50;30.92;;;1.20;99.90;;;;;;5076731;28;20432;-69
2022/01/11 02:43:58;;;;;;;79.45;31.38;;;1.20;99.90;;;;;;5077007;28;20373;-69
2022/01/11 02:46:24;;;;;;;96.88;34.05;;;1.10;99.90;;;;;;5078106;28;20024;-69
2022/01/11 02:48:51;;;;;;;104.70;33.42;;;1.10;99.90;;;;;;5075662;28;20370;-69
2022/01/11 02:51:17;;;;;;;110.78;32.70;;;1.10;99.90;;;;;;5076577;28;20035;-69
2022/01/11 02:53:49;;;;;;;104.45;33.47;;;1.10;99.90;;;;;;5076497;28;20031;-69
2022/01/11 02:56:16;;;;;;;91.72;31.73;;;1.00;99.90;;;;;;5075181;28;20526;-70
2022/01/11 02:58:43;;;;;;;105.85;32.95;;;0.90;99.90;;;;;;5075549;28;20424;-69
2022/01/11 03:01:10;;;;;;;91.35;34.67;;;0.90;99.90;;;;;;5074646;28;20028;-70
2022/01/11 03:03:36;;;;;;;84.78;33.10;;;0.80;99.90;;;;;;5074479;28;20117;-69
2022/01/11 03:06:03;;;;;;;89.57;33.33;;;0.80;99.90;;;;;;5074715;28;20028;-69
2022/01/11 03:08:32;;;;;;;68.40;32.35;;;0.80;99.90;;;;;;5073167;28;20032;-69
2022/01/11 03:10:59;;;;;;;61.88;33.38;;;0.80;99.90;;;;;;5074677;28;20036;-70
2022/01/11 03:13:24;;;;;;;62.33;34.85;;;0.70;99.90;;;;;;5074396;28;20036;-70
2022/01/11 03:15:53;;;;;;;69.55;34.00;;;0.70;99.90;;;;;;5074643;28;20028;-69
2022/01/11 03:18:19;;;;;;;81.57;33.38;;;0.80;99.90;;;;;;5074750;28;20047;-70
2022/01/11 03:20:46;;;;;;;81.80;34.58;;;0.80;99.90;;;;;;5074172;28;20020;-70
2022/01/11 03:23:14;;;;;;;84.72;34.85;;;0.80;99.90;;;;;;5074605;28;20024;-70
2022/01/11 03:25:40;;;;;;;90.47;33.78;;;0.70;99.90;;;;;;5075944;28;20382;-70
2022/01/11 03:28:05;;;;;;;77.97;34.42;;;0.80;99.90;;;;;;5075291;28;20025;-70
2022/01/11 03:30:32;;;;;;;74.13;34.90;;;0.70;99.90;;;;;;5073896;28;20554;-70
2022/01/11 03:32:57;;;;;;;85.97;34.20;;;0.60;99.90;;;;;;5074120;28;20363;-70
2022/01/11 03:35:23;;;;;;;75.97;34.28;;;0.70;99.90;;;;;;5076374;28;20031;-70
2022/01/11 03:37:50;;;;;;;86.07;34.25;;;0.70;99.90;;;;;;5073984;28;20032;-70
2022/01/11 03:40:18;;;;;;;96.97;36.75;;;0.70;99.90;;;;;;5072594;28;20021;-70
2022/01/11 03:42:44;;;;;;;78.78;34.83;;;0.70;99.90;;;;;;5074558;28;20103;-70
2022/01/11 03:45:11;;;;;;;79.28;33.17;;;0.70;99.90;;;;;;5072757;28;20047;-70
2022/01/11 03:47:38;;;;;;;100.78;34.67;;;0.70;99.90;;;;;;5073983;28;20024;-70
2022/01/11 03:50:07;;;;;;;73.68;32.72;;;0.70;99.90;;;;;;5074768;28;20055;-70
2022/01/11 03:52:32;;;;;;;67.13;32.40;;;0.70;99.90;;;;;;5075412;28;20025;-70
2022/01/11 03:57:26;;;;;;;62.28;30.75;;;0.60;99.90;;;;;;5074115;28;20406;-70
2022/01/11 03:59:52;;;;;;;63.47;30.80;;;0.60;99.90;;;;;;5089972;28;20488;-69
2022/01/11 04:02:18;;;;;;;70.22;29.45;;;0.60;99.90;;;;;;5089259;28;20056;-70
2022/01/11 04:04:52;;;;;;;68.05;30.48;;;0.60;99.90;;;;;;5073710;28;20022;-69
2022/01/11 04:07:18;;;;;;;67.03;32.00;;;0.60;99.90;;;;;;5073741;28;20028;-70
2022/01/11 04:09:43;;;;;;;56.83;29.65;;;0.50;99.90;;;;;;5073836;28;20021;-69
2022/01/11 04:12:09;;;;;;;68.53;31.08;;;0.50;99.90;;;;;;5089540;28;20115;-70
2022/01/11 04:14:35;;;;;;;78.40;30.98;;;0.60;99.90;;;;;;5073749;28;20028;-70
2022/01/11 04:17:01;;;;;;;71.18;29.85;;;0.60;99.90;;;;;;5073720;28;20027;-69
2022/01/11 04:19:26;;;;;;;72.28;28.38;;;0.60;99.90;;;;;;5073898;28;20370;-70
2022/01/11 04:21:52;;;;;;;76.75;30.75;;;0.60;99.90;;;;;;5073622;28;20432;-69
2022/01/11 04:24:18;;;;;;;67.18;29.38;;;0.60;99.90;;;;;;5072451;28;20013;-70
2022/01/11 04:26:43;;;;;;;65.18;29.33;;;0.50;99.90;;;;;;5074137;28;20021;-70
2022/01/11 04:29:09;;;;;;;70.22;29.27;;;0.50;99.90;;;;;;5073567;28;20071;-70
2022/01/11 04:31:34;;;;;;;56.58;28.00;;;0.60;99.90;;;;;;5073606;28;20055;-70
2022/01/11 04:34:00;;;;;;;55.92;28.95;;;0.50;99.90;;;;;;5073558;28;20029;-70
2022/01/11 04:36:25;;;;;;;55.13;28.35;;;0.50;99.90;;;;;;5073668;28;20020;-70
2022/01/11 04:38:51;;;;;;;66.03;28.70;;;0.50;99.90;;;;;;5073633;28;20016;-69
2022/01/11 04:41:17;;;;;;;54.13;27.73;;;0.50;99.90;;;;;;5075298;28;20359;-69
2022/01/11 04:43:43;;;;;;;63.40;30.38;;;0.50;99.90;;;;;;5076291;28;20363;-70
2022/01/11 04:46:09;;;;;;;52.60;28.35;;;0.50;99.90;;;;;;5073926;28;20040;-70
2022/01/11 04:48:34;;;;;;;63.92;31.15;;;0.40;99.90;;;;;;5074397;28;20024;-70
2022/01/11 04:51:03;;;;;;;61.50;28.45;;;0.40;99.90;;;;;;5074136;28;20025;-70
2022/01/11 04:53:28;;;;;;;62.33;30.10;;;0.40;99.90;;;;;;5072060;28;20120;-69
2022/01/11 04:55:55;;;;;;;57.85;28.52;;;0.40;99.90;;;;;;5074116;28;20111;-69
2022/01/11 04:58:20;;;;;;;83.40;30.30;;;0.40;99.90;;;;;;5076008;28;20021;-70
2022/01/11 05:00:46;;;;;;;89.18;32.92;;;0.50;99.90;;;;;;5077520;28;20101;-70
2022/01/11 05:03:12;;;;;;;79.97;32.00;;;0.50;99.90;;;;;;5077637;28;20036;-69
2022/01/11 05:05:37;;;;;;;82.80;30.90;;;0.40;99.90;;;;;;5094044;28;20078;-69
2022/01/11 05:08:05;;;;;;;92.22;31.33;;;0.50;99.90;;;;;;5079339;28;20114;-69
2022/01/11 05:10:31;;;;;;;67.35;31.58;;;0.50;99.90;;;;;;5121550;22;20033;-69
2022/01/11 05:12:57;;;;;;;98.78;33.15;;;0.50;99.90;;;;;;5057619;28;20021;-70
2022/01/11 05:15:25;;;;;;;66.20;31.65;;;0.50;99.90;;;;;;5057397;28;20083;-70
2022/01/11 05:17:51;;;;;;;65.03;29.35;;;0.50;99.90;;;;;;5057855;28;20183;-70
2022/01/11 05:20:17;;;;;;;59.90;29.60;;;0.50;99.90;;;;;;5055591;28;20027;-70
2022/01/11 05:22:45;;;;;;;76.97;30.45;;;0.40;99.90;;;;;;5057772;28;20039;-70
2022/01/11 05:25:13;;;;;;;70.80;30.48;;;0.50;99.90;;;;;;5056984;28;20023;-70
2022/01/11 05:27:39;;;;;;;63.03;31.38;;;0.40;99.90;;;;;;5055680;28;20509;-70
2022/01/11 05:30:07;;;;;;;70.10;29.80;;;0.40;99.90;;;;;;5055799;28;20024;-71
2022/01/11 05:32:35;;;;;;;64.78;30.30;;;0.40;99.90;;;;;;5056836;28;20070;-71
2022/01/11 05:35:02;;;;;;;60.22;29.73;;;0.40;99.90;;;;;;5057300;28;20029;-70
2022/01/11 05:37:28;;;;;;;60.10;30.63;;;0.40;99.90;;;;;;5056670;28;20047;-71
2022/01/11 05:39:53;;;;;;;73.43;31.00;;;0.40;99.90;;;;;;5056504;28;20202;-70
2022/01/11 05:42:19;;;;;;;67.05;30.60;;;0.40;99.90;;;;;;5056580;28;20025;-70
2022/01/11 05:44:45;;;;;;;62.72;29.98;;;0.50;99.90;;;;;;5057324;28;20055;-70
2022/01/11 05:47:11;;;;;;;79.68;30.40;;;0.40;99.90;;;;;;5057278;28;20021;-70
2022/01/11 05:49:36;;;;;;;66.00;29.50;;;0.50;99.90;;;;;;5057034;28;20112;-71
2022/01/11 05:52:02;;;;;;;66.88;29.98;;;0.50;99.90;;;;;;5057185;28;20033;-71
2022/01/11 05:54:28;;;;;;;65.13;30.50;;;0.40;99.90;;;;;;5057069;28;20025;-70
2022/01/11 05:56:53;;;;;;;77.72;29.92;;;0.40;99.90;;;;;;5056804;28;20036;-71
2022/01/11 05:59:19;;;;;;;68.72;30.50;;;0.40;99.90;;;;;;5057184;28;20028;-71
2022/01/11 06:01:44;;;;;;;96.88;31.75;;;0.40;99.90;;;;;;5055497;28;20033;-71
2022/01/11 06:04:10;;;;;;;92.72;32.30;;;0.40;99.90;;;;;;5055793;28;20489;-72
2022/01/11 06:06:35;;;;;;;77.57;31.08;;;0.40;99.90;;;;;;5056934;28;20035;-71
2022/01/11 06:09:03;;;;;;;95.22;30.92;;;0.40;99.90;;;;;;5057397;28;20051;-71
2022/01/11 06:11:29;;;;;;;92.90;31.42;;;0.40;99.90;;;;;;5057543;28;20033;-71
2022/01/11 06:13:55;;;;;;;88.05;32.92;;;0.40;99.90;;;;;;5067825;28;20029;-69
2022/01/11 06:16:21;;;;;;;94.25;32.35;;;0.40;99.90;;;;;;5060939;28;20040;-71
2022/01/11 06:18:47;;;;;;;85.15;31.50;;;0.50;99.90;;;;;;5058243;28;20025;-70
2022/01/11 06:21:13;;;;;;;102.15;32.60;;;0.40;99.90;;;;;;5057523;28;20127;-71
2022/01/11 06:23:38;;;;;;;100.00;34.83;;;0.50;99.90;;;;;;5056733;28;20024;-71
2022/01/11 06:26:04;;;;;;;81.45;34.60;;;0.50;99.90;;;;;;5056700;28;20029;-71
2022/01/11 06:28:30;;;;;;;92.38;34.08;;;0.40;99.90;;;;;;5055426;28;20375;-70
2022/01/11 06:30:55;;;;;;;108.78;33.97;;;0.50;99.90;;;;;;5056574;28;20029;-71
2022/01/11 06:33:21;;;;;;;82.45;34.60;;;0.50;99.90;;;;;;5056965;28;20033;-71
2022/01/11 06:35:47;;;;;;;92.25;36.55;;;0.50;99.90;;;;;;5056047;28;20083;-70
2022/01/11 06:38:14;;;;;;;127.35;34.65;;;0.60;99.90;;;;;;5056897;28;20027;-70
2022/01/11 06:40:40;;;;;;;97.85;36.85;;;0.60;99.90;;;;;;5057715;28;20021;-70
2022/01/11 06:43:06;;;;;;;121.82;35.10;;;0.50;99.90;;;;;;5059194;28;20021;-70
2022/01/11 06:45:33;;;;;;;137.48;35.47;;;0.50;99.90;;;;;;5057004;28;20025;-70
2022/01/11 06:48:00;;;;;;;105.82;35.13;;;0.60;99.90;;;;;;5058699;28;20021;-70
2022/01/11 06:50:26;;;;;;;76.57;32.58;;;0.50;99.90;;;;;;5059481;28;20103;-70
2022/01/11 06:52:53;;;;;;;91.60;35.38;;;0.50;99.90;;;;;;5061025;28;20025;-70
2022/01/11 06:55:19;;;;;;;95.43;35.97;;;0.50;99.90;;;;;;5061099;28;20016;-70
2022/01/11 06:57:45;;;;;;;100.53;36.67;;;0.50;99.90;;;;;;5064492;28;20146;-71
2022/01/11 07:00:12;;;;;;;83.55;35.78;;;0.50;99.90;;;;;;5057899;28;20074;-71
2022/01/11 07:02:39;;;;;;;93.50;34.05;;;0.60;99.90;;;;;;5055131;28;20025;-70
2022/01/11 07:05:05;;;;;;;75.47;32.85;;;0.60;99.90;;;;;;5053858;28;20036;-70
2022/01/11 07:07:31;;;;;;;82.22;33.58;;;0.60;99.90;;;;;;5055044;28;20103;-71
2022/01/11 07:09:57;;;;;;;76.43;32.30;;;0.60;99.90;;;;;;5055068;28;20236;-70
2022/01/11 07:12:22;;;;;;;80.00;32.35;;;0.60;99.90;;;;;;5055140;28;20029;-71
2022/01/11 07:14:48;;;;;;;65.90;30.10;;;0.50;99.90;;;;;;5055381;28;20108;-70
2022/01/11 07:17:15;;;;;;;81.70;33.25;;;0.60;99.90;;;;;;5055090;28;20075;-71
2022/01/11 07:19:41;;;;;;;74.25;30.42;;;0.60;99.90;;;;;;5055323;28;20082;-71
2022/01/11 07:22:07;;;;;;;59.20;27.85;;;0.50;99.90;;;;;;5055094;28;20025;-71
2022/01/11 07:24:32;;;;;;;57.95;29.00;;;0.60;99.90;;;;;;5055675;28;20078;-71
2022/01/11 07:26:58;;;;;;;53.65;26.48;;;0.60;99.90;;;;;;5054618;28;20386;-71
2022/01/11 07:29:24;;;;;;;69.63;27.20;;;0.60;99.90;;;;;;5055069;28;20017;-71
2022/01/11 07:31:49;;;;;;;65.78;29.55;;;0.60;99.90;;;;;;5055042;28;20040;-70
2022/01/11 07:34:16;;;;;;;69.82;29.08;;;0.60;99.90;;;;;;5055262;28;20108;-72
2022/01/11 07:36:43;;;;;;;73.95;28.08;;;0.60;99.90;;;;;;5054704;28;20029;-72
2022/01/11 07:39:09;;;;;;;65.07;27.42;;;0.60;99.90;;;;;;5055715;28;20045;-72
2022/01/11 07:41:35;;;;;;;63.83;28.52;;;0.60;99.90;;;;;;5055009;28;20017;-71
2022/01/11 07:44:00;;;;;;;58.25;27.33;;;0.50;99.90;;;;;;5053066;28;20032;-70
2022/01/11 07:46:26;;;;;;;67.55;27.73;;;0.50;99.90;;;;;;5054761;28;20029;-70
2022/01/11 07:48:52;;;;;;;65.63;27.48;;;0.60;99.90;;;;;;5054926;28;20029;-70
2022/01/11 07:51:17;;;;;;;57.20;27.73;;;0.60;99.90;;;;;;5055976;28;20044;-70
2022/01/11 07:53:43;;;;;;;64.28;27.27;;;0.60;99.90;;;;;;5055264;28;20052;-71
2022/01/11 07:56:09;;;;;;;60.58;26.85;;;0.70;99.90;;;;;;5054882;28;20033;-70
2022/01/11 07:58:35;;;;;;;65.53;26.65;;;0.60;99.90;;;;;;5053353;28;20510;-71
2022/01/11 08:01:01;;;;;;;52.60;25.98;;;0.70;99.90;;;;;;5054390;28;20367;-71
2022/01/11 08:03:26;;;;;;;62.53;26.75;;;0.70;99.90;;;;;;5054888;28;20198;-71
2022/01/11 08:05:53;;;;;;;50.80;25.58;;;0.70;99.90;;;;;;5055282;28;20028;-71
2022/01/11 08:08:19;;;;;;;55.63;25.95;;;0.70;99.90;;;;;;5055219;28;20028;-72
2022/01/11 08:10:45;;;;;;;58.83;24.40;;;0.70;99.90;;;;;;5054284;28;20044;-71
2022/01/11 08:13:11;;;;;;;51.17;25.83;;;0.80;99.90;;;;;;5066499;28;20555;-71
2022/01/11 08:15:37;;;;;;;59.65;25.55;;;0.80;99.90;;;;;;5060322;28;20025;-71
2022/01/11 08:18:04;;;;;;;60.63;26.02;;;0.80;99.90;;;;;;5055481;28;20028;-71
2022/01/11 08:20:30;;;;;;;59.05;27.30;;;0.90;99.90;;;;;;5055504;28;20546;-71
2022/01/11 08:22:56;;;;;;;56.83;26.55;;;0.90;99.90;;;;;;5055680;28;20122;-72
2022/01/11 08:25:23;;;;;;;55.67;25.73;;;0.90;99.90;;;;;;5054589;28;20017;-71
2022/01/11 08:27:49;;;;;;;74.05;28.85;;;0.90;99.90;;;;;;5054887;28;20025;-71
2022/01/11 08:30:15;;;;;;;63.88;26.75;;;1.00;99.90;;;;;;5054816;28;20126;-72
2022/01/11 08:32:41;;;;;;;56.50;27.25;;;1.00;99.90;;;;;;5054620;28;20021;-71
2022/01/11 08:35:07;;;;;;;51.80;25.38;;;1.00;99.90;;;;;;5055949;28;20021;-71
2022/01/11 08:37:32;;;;;;;55.20;26.00;;;0.90;99.90;;;;;;5058720;28;20032;-71
2022/01/11 08:39:58;;;;;;;51.22;24.55;;;0.90;99.90;;;;;;5058258;28;20483;-72
2022/01/11 08:42:25;;;;;;;48.88;23.73;;;1.00;99.90;;;;;;5059173;28;20021;-71
2022/01/11 08:44:51;;;;;;;46.95;24.75;;;1.00;99.90;;;;;;5058994;28;20021;-72
2022/01/11 08:47:18;;;;;;;42.63;22.13;;;1.10;99.90;;;;;;5058643;28;20029;-72
2022/01/11 08:49:44;;;;;;;43.35;22.60;;;1.10;99.90;;;;;;5057383;28;20478;-72
2022/01/11 08:52:10;;;;;;;47.50;22.45;;;1.10;99.90;;;;;;5058844;28;20025;-72
2022/01/11 08:54:37;;;;;;;45.58;21.15;;;1.10;99.90;;;;;;5059132;28;20481;-72
2022/01/11 08:57:03;;;;;;;46.22;22.52;;;1.10;99.90;;;;;;5058155;28;20028;-71
2022/01/11 08:59:29;;;;;;;41.05;22.10;;;1.10;99.90;;;;;;5059639;28;20441;-70
2022/01/11 09:01:57;;;;;;;50.13;22.48;;;1.10;99.90;;;;;;5058796;28;20477;-71
2022/01/11 09:04:23;;;;;;;42.53;22.15;;;1.10;99.90;;;;;;5062317;28;20049;-71
2022/01/11 09:06:50;;;;;;;54.92;22.13;;;1.10;99.90;;;;;;5057979;28;20029;-69
2022/01/11 09:09:17;;;;;;;38.90;19.52;;;1.20;99.90;;;;;;5058141;28;20028;-71
2022/01/11 09:11:43;;;;;;;43.63;22.10;;;1.20;99.90;;;;;;5057722;28;20060;-70
2022/01/11 09:14:09;;;;;;;48.15;20.00;;;1.20;99.90;;;;;;5058074;28;20029;-71
2022/01/11 09:16:35;;;;;;;34.90;20.33;;;1.20;99.90;;;;;;5056967;28;20093;-71
2022/01/11 09:19:00;;;;;;;39.00;22.10;;;1.20;99.90;;;;;;5057542;28;20478;-71
2022/01/11 09:21:26;;;;;;;39.58;19.48;;;1.20;99.90;;;;;;5056916;28;20044;-71
2022/01/11 09:23:52;;;;;;;38.33;20.13;;;1.20;99.90;;;;;;5057713;28;20474;-71
2022/01/11 09:26:18;;;;;;;36.75;20.33;;;1.20;99.90;;;;;;5058144;28;20029;-71
2022/01/11 09:28:45;;;;;;;39.13;20.02;;;1.30;99.90;;;;;;5057598;28;20485;-70
2022/01/11 09:31:10;;;;;;;35.45;20.10;;;1.40;99.90;;;;;;5056512;28;20032;-71
2022/01/11 09:33:36;;;;;;;43.75;20.92;;;1.40;99.90;;;;;;5058136;28;20530;-70
2022/01/11 09:36:02;;;;;;;38.13;19.02;;;1.50;99.90;;;;;;5057738;28;20025;-70
2022/01/11 09:38:28;;;;;;;42.78;19.60;;;1.50;99.90;;;;;;5057199;28;20025;-70
2022/01/11 09:40:57;;;;;;;37.83;19.98;;;1.50;99.90;;;;;;5057581;28;20028;-70
2022/01/11 09:43:24;;;;;;;43.47;21.10;;;1.50;99.90;;;;;;5057525;28;20021;-71
2022/01/11 09:45:51;;;;;;;48.30;21.63;;;1.40;99.90;;;;;;5056798;28;20024;-71
2022/01/11 09:48:21;;;;;;;43.40;21.63;;;1.40;99.90;;;;;;5056770;28;20039;-71
2022/01/11 09:50:46;;;;;;;41.72;20.70;;;1.50;99.90;;;;;;5060168;28;20068;-71
2022/01/11 09:53:12;;;;;;;38.78;20.55;;;1.50;99.90;;;;;;5061145;28;20040;-71
2022/01/11 09:55:38;;;;;;;45.40;21.70;;;1.50;99.90;;;;;;5059446;28;20021;-72
2022/01/11 09:58:05;;;;;;;40.35;19.88;;;1.50;99.90;;;;;;5059585;28;20025;-71
2022/01/11 10:00:31;;;;;;;40.17;20.65;;;1.60;99.90;;;;;;5061176;28;20032;-71
2022/01/11 10:02:57;;;;;;;39.85;20.60;;;1.60;99.90;;;;;;5059590;28;20028;-72
2022/01/11 10:05:24;;;;;;;38.47;19.50;;;1.60;99.90;;;;;;5061268;28;20021;-72
2022/01/11 10:07:49;;;;;;;38.78;20.92;;;1.60;99.90;;;;;;5059132;28;20055;-71
2022/01/11 10:10:22;;;;;;;39.10;20.52;;;1.60;99.90;;;;;;5060444;28;20092;-72
2022/01/11 10:12:54;;;;;;;40.67;21.05;;;1.80;99.90;;;;;;5070847;28;20146;-71
2022/01/11 10:15:31;;;;;;;40.30;21.08;;;1.70;99.90;;;;;;5066450;28;20028;-71
2022/01/11 10:17:57;;;;;;;42.10;22.38;;;1.80;99.90;;;;;;5060309;28;20100;-71
2022/01/11 10:20:25;;;;;;;37.65;19.90;;;1.80;99.90;;;;;;5060001;28;20056;-72
2022/01/11 10:23:05;;;;;;;39.97;19.52;;;1.80;99.90;;;;;;5061871;28;20021;-71
2022/01/11 10:25:41;;;;;;;48.45;21.23;;;1.80;99.90;;;;;;5062297;28;20017;-72
2022/01/11 10:28:06;;;;;;;38.70;19.85;;;1.90;99.90;;;;;;5061747;28;20049;-71
2022/01/11 10:30:33;;;;;;;42.67;20.80;;;1.90;99.90;;;;;;5061607;28;20028;-71
2022/01/11 10:33:01;;;;;;;45.42;20.02;;;1.90;99.90;;;;;;5061449;28;20085;-72
2022/01/11 10:35:42;;;;;;;40.03;19.70;;;1.80;99.90;;;;;;5060334;28;20021;-72
2022/01/11 10:38:09;;;;;;;35.42;19.73;;;1.90;99.90;;;;;;5058570;28;20084;-72
2022/01/11 10:40:45;;;;;;;36.72;19.65;;;1.90;99.90;;;;;;5058671;28;20025;-72
2022/01/11 10:43:14;;;;;;;37.95;20.20;;;1.80;99.90;;;;;;5060706;28;20036;-72
2022/01/11 10:45:46;;;;;;;40.92;20.92;;;1.80;99.90;;;;;;5061130;28;20033;-72
2022/01/11 10:48:21;;;;;;;43.28;20.48;;;1.80;99.90;;;;;;5061536;28;20021;-72
2022/01/11 10:50:53;;;;;;;41.40;21.13;;;1.90;99.90;;;;;;5059029;28;20025;-72
2022/01/11 10:53:32;;;;;;;42.63;20.23;;;2.00;99.90;;;;;;5061907;28;20018;-72
2022/01/11 10:55:59;;;;;;;43.40;19.95;;;2.00;99.90;;;;;;5062639;28;20028;-72
2022/01/11 10:58:28;;;;;;;40.30;21.05;;;2.00;99.90;;;;;;5062246;28;20059;-74
2022/01/11 11:00:55;;;;;;;41.83;21.13;;;2.10;99.90;;;;;;5063278;28;20025;-73
2022/01/11 11:03:23;;;;;;;39.85;20.65;;;2.10;99.90;;;;;;5061916;28;20048;-72
2022/01/11 11:05:58;;;;;;;43.40;21.15;;;2.30;99.90;;;;;;5065035;28;20161;-72
2022/01/11 11:08:34;;;;;;;43.60;22.23;;;2.20;99.90;;;;;;5065594;28;20021;-72
2022/01/11 11:11:04;;;;;;;39.50;20.30;;;2.30;99.90;;;;;;5084488;22;20033;-75
2022/01/11 11:13:34;;;;;;;37.22;21.15;;;2.40;99.90;;;;;;5054889;28;20049;-75
2022/01/11 11:16:12;;;;;;;41.63;21.40;;;2.40;99.90;;;;;;5054133;28;20553;-74
2022/01/11 11:18:40;;;;;;;39.60;20.55;;;2.40;99.90;;;;;;5036667;28;20025;-75
2022/01/11 11:21:15;;;;;;;40.42;21.05;;;2.40;99.90;;;;;;5036260;28;20127;-74
2022/01/11 11:23:41;;;;;;;41.72;21.10;;;2.40;99.90;;;;;;5054475;28;20032;-74
2022/01/11 11:26:06;;;;;;;39.50;20.92;;;2.30;99.90;;;;;;5055126;28;20048;-74
2022/01/11 11:28:33;;;;;;;39.38;21.13;;;2.30;99.90;;;;;;5060154;28;20478;-72
2022/01/11 11:30:59;;;;;;;39.50;21.30;;;2.40;99.90;;;;;;5048493;28;20029;-73
2022/01/11 11:33:25;;;;;;;40.00;21.20;;;2.40;99.90;;;;;;5063309;28;20025;-73
2022/01/11 11:35:51;;;;;;;39.83;21.58;;;2.40;99.90;;;;;;5063953;28;20021;-72
2022/01/11 11:38:21;;;;;;;45.45;21.77;;;2.50;99.90;;;;;;5062188;28;20025;-73
2022/01/11 11:40:52;;;;;;;41.90;21.85;;;2.50;99.90;;;;;;5057320;28;20021;-73
2022/01/11 11:43:18;;;;;;;43.50;21.23;;;2.50;99.90;;;;;;5041846;28;20025;-73
2022/01/11 11:45:44;;;;;;;35.75;20.70;;;2.50;99.90;;;;;;5058447;28;20051;-73
2022/01/11 11:48:13;;;;;;;42.58;21.98;;;2.50;99.90;;;;;;5058142;28;20104;-73
2022/01/11 11:50:53;;;;;;;41.33;21.52;;;2.50;99.90;;;;;;5057288;28;20390;-74
2022/01/11 11:53:32;;;;;;;40.80;22.17;;;2.50;99.90;;;;;;5059182;28;20017;-74
2022/01/11 11:56:17;;;;;;;39.15;21.35;;;2.60;99.90;;;;;;5055759;28;20029;-74
2022/01/11 11:58:46;;;;;;;40.63;20.60;;;2.70;99.90;;;;;;5055093;28;20021;-74
2022/01/11 12:01:30;;;;;;;41.67;21.27;;;2.80;99.90;;;;;;5037141;28;20144;-74
2022/01/11 12:03:56;;;;;;;34.75;18.40;;;2.80;99.90;;;;;;5055404;28;20159;-74
2022/01/11 12:06:26;;;;;;;34.83;19.88;;;2.90;99.90;;;;;;5057242;28;20049;-74
2022/01/11 12:09:06;;;;;;;39.83;21.03;;;3.00;99.90;;;;;;5060802;28;20470;-74
2022/01/11 12:11:38;;;;;;;37.88;19.90;;;3.00;99.90;;;;;;5059507;28;20291;-74
2022/01/11 12:14:04;;;;;;;35.20;19.90;;;3.10;99.90;;;;;;5044376;28;20025;-73
2022/01/11 12:16:35;;;;;;;38.65;19.70;;;3.20;99.90;;;;;;5059805;28;20036;-73
2022/01/11 12:19:04;;;;;;;39.97;18.77;;;3.20;99.90;;;;;;5041076;28;20028;-73
2022/01/11 12:21:39;;;;;;;39.40;19.25;;;3.20;99.90;;;;;;5059077;28;20470;-74
2022/01/11 12:24:05;;;;;;;42.45;20.50;;;3.30;99.90;;;;;;5060105;28;20020;-72
2022/01/11 12:26:35;;;;;;;39.88;18.80;;;3.20;99.90;;;;;;5059953;28;20504;-74
2022/01/11 12:29:10;;;;;;;35.53;18.73;;;3.30;99.90;;;;;;5059727;28;20108;-74
2022/01/11 12:32:03;;;;;;;32.88;19.67;;;3.20;99.90;;;;;;5041636;28;20064;-74
2022/01/11 12:34:47;;;;;;;36.38;18.42;;;3.20;99.90;;;;;;5040870;28;20385;-75
2022/01/11 12:37:27;;;;;;;35.97;19.80;;;3.10;99.90;;;;;;5059180;28;20059;-73
2022/01/11 12:40:07;;;;;;;41.03;19.55;;;3.00;99.90;;;;;;5058002;28;20048;-74